createdAt,value
2022-08-02T00:01:30.815Z,100592.50
2022-08-02T00:04:06.466Z,100592.97
2022-08-02T00:06:42.057Z,100600.63
2022-08-02T00:09:15.358Z,100602.69
2022-08-02T00:11:47.961Z,100598.59
2022-08-02T00:14:18.845Z,100604.28
2022-08-02T00:16:48.921Z,100619.38
2022-08-02T00:19:16.444Z,100620.16
2022-08-02T00:21:53.867Z,100620.63
2022-08-02T00:24:30.807Z,100622.22
2022-08-02T00:27:09.648Z,100619.75
2022-08-02T00:29:44.434Z,100625.09
2022-08-02T00:32:27.646Z,100625.88
2022-08-02T00:35:00.633Z,100617.78
2022-08-02T00:37:38.264Z,100614.03
2022-08-02T00:40:06.590Z,100620.53
2022-08-02T00:42:39.933Z,100618.47
2022-08-02T00:45:10.087Z,100615.63
2022-08-02T00:47:44.709Z,100618.94
2022-08-02T00:50:19.721Z,100617.31
2022-08-02T00:52:52.910Z,100612.88
2022-08-02T00:55:30.986Z,100617.69
2022-08-02T00:58:09.586Z,100620.53
2022-08-02T01:00:42.083Z,100625.44
2022-08-02T01:03:17.747Z,100624.66
2022-08-02T01:06:10.027Z,100639.16
2022-08-02T01:08:38.886Z,100631.22
2022-08-02T01:11:18.840Z,100625.69
2022-08-02T01:13:50.286Z,100635.91
2022-08-02T01:16:26.635Z,100641.47
2022-08-02T01:19:16.118Z,100629.91
2022-08-02T01:22:15.036Z,100630.75
2022-08-02T01:25:15.021Z,100627.00
2022-08-02T01:28:07.202Z,100646.25
2022-08-02T01:30:36.112Z,100637.25
2022-08-02T01:33:15.435Z,100646.50
2022-08-02T01:35:56.101Z,100649.94
2022-08-02T01:38:36.706Z,100641.38
2022-08-02T01:41:08.058Z,100653.97
2022-08-02T01:43:43.693Z,100644.59
2022-08-02T01:46:16.437Z,100651.38
2022-08-02T01:48:53.882Z,100644.41
2022-08-02T01:51:45.951Z,100642.34
2022-08-02T01:54:19.283Z,100644.28
2022-08-02T01:56:49.001Z,100651.97
2022-08-02T01:59:32.625Z,100654.03
2022-08-02T02:02:01.228Z,100657.56
2022-08-02T02:04:36.267Z,100654.28
2022-08-02T02:07:12.963Z,100656.88
2022-08-02T02:09:50.572Z,100659.63
2022-08-02T02:12:27.294Z,100663.75
2022-08-02T02:15:00.482Z,100682.88
2022-08-02T02:17:50.549Z,100683.69
2022-08-02T02:20:27.730Z,100686.88
2022-08-02T02:23:01.030Z,100689.16
2022-08-02T02:25:36.393Z,100692.41
2022-08-02T02:28:30.905Z,100699.94
2022-08-02T02:31:10.153Z,100696.69
2022-08-02T02:33:50.750Z,100694.94
2022-08-02T02:36:21.178Z,100693.88
2022-08-02T02:39:11.635Z,100696.13
2022-08-02T02:41:46.231Z,100701.19
2022-08-02T02:44:18.601Z,100692.38
2022-08-02T02:46:54.763Z,100695.31
2022-08-02T02:49:26.120Z,100692.91
2022-08-02T02:52:00.116Z,100693.44
2022-08-02T02:54:34.559Z,100689.78
2022-08-02T02:57:13.131Z,100694.78
2022-08-02T02:59:49.626Z,100701.31
2022-08-02T03:02:24.611Z,100699.72
2022-08-02T03:04:58.109Z,100696.16
2022-08-02T03:07:29.044Z,100697.75
2022-08-02T03:09:57.111Z,100690.88
2022-08-02T03:12:30.555Z,100691.31
2022-08-02T03:15:06.109Z,100692.22
2022-08-02T03:17:44.338Z,100688.56
2022-08-02T03:20:23.294Z,100685.63
2022-08-02T03:22:56.097Z,100689.38
2022-08-02T03:25:32.025Z,100692.22
2022-08-02T03:28:07.618Z,100684.09
2022-08-02T03:30:42.984Z,100688.19
2022-08-02T03:33:10.960Z,100686.59
2022-08-02T03:35:50.828Z,100699.25
2022-08-02T03:38:23.321Z,100689.00
2022-08-02T03:41:02.291Z,100687.41
2022-08-02T03:43:30.244Z,100691.84
2022-08-02T03:46:07.267Z,100692.31
2022-08-02T03:48:38.386Z,100695.50
2022-08-02T03:51:19.572Z,100700.00
2022-08-02T03:53:54.496Z,100721.22
2022-08-02T03:56:27.242Z,100731.03
2022-08-02T03:59:20.185Z,100742.47
2022-08-02T04:01:58.616Z,100751.47
2022-08-02T04:04:36.187Z,100756.75
2022-08-02T04:07:06.348Z,100770.34
2022-08-02T04:09:43.472Z,100782.56
2022-08-02T04:12:16.418Z,100799.31
2022-08-02T04:14:47.787Z,100803.53
2022-08-02T04:17:21.081Z,100810.13
2022-08-02T04:19:58.589Z,100822.44
2022-08-02T04:22:50.689Z,100835.53
2022-08-02T04:25:38.215Z,100840.41
2022-08-02T04:28:19.528Z,100840.50
2022-08-02T04:31:01.186Z,100828.28
2022-08-02T04:33:29.226Z,100813.63
2022-08-02T04:36:02.227Z,100818.16
2022-08-02T04:38:32.090Z,100817.00
2022-08-02T04:41:07.830Z,100828.78
2022-08-02T04:43:35.414Z,100833.31
2022-08-02T04:46:10.247Z,100836.63
2022-08-02T04:48:43.215Z,100848.84
2022-08-02T04:51:18.188Z,100839.91
2022-08-02T04:53:49.197Z,100853.38
2022-08-02T04:56:21.955Z,100851.88
2022-08-02T04:58:53.999Z,100852.22
2022-08-02T05:01:29.257Z,100857.59
2022-08-02T05:04:03.007Z,100857.59
2022-08-02T05:06:37.428Z,100873.06
2022-08-02T05:09:12.546Z,100888.22
2022-08-02T05:11:43.433Z,100879.66
2022-08-02T05:14:26.910Z,100888.31
2022-08-02T05:16:59.744Z,100885.03
2022-08-02T05:19:33.539Z,100875.22
2022-08-02T05:22:08.911Z,100860.13
2022-08-02T05:24:39.803Z,100870.84
2022-08-02T05:27:17.146Z,100870.84
2022-08-02T05:29:56.902Z,100878.13
2022-08-02T05:32:37.337Z,100885.53
2022-08-02T05:35:14.036Z,100906.31
2022-08-02T05:37:48.337Z,100921.03
2022-08-02T05:40:26.238Z,100937.34
2022-08-02T05:42:56.228Z,100961.41
2022-08-02T05:45:26.457Z,100972.03
2022-08-02T05:48:01.423Z,100969.97
2022-08-02T05:50:35.320Z,100984.78
2022-08-02T05:53:28.918Z,101003.50
2022-08-02T05:56:13.588Z,100997.78
2022-08-02T05:58:53.649Z,100988.03
2022-08-02T06:01:39.079Z,100982.34
2022-08-02T06:04:16.516Z,100982.53
2022-08-02T06:06:45.005Z,100994.16
2022-08-02T06:09:23.206Z,100994.31
2022-08-02T06:12:09.526Z,100984.81
2022-08-02T06:14:54.088Z,100978.13
2022-08-02T06:17:30.511Z,100985.97
2022-08-02T06:20:03.301Z,100974.75
2022-08-02T06:22:40.539Z,100991.22
2022-08-02T06:25:50.497Z,100991.22
2022-08-02T06:28:17.371Z,100983.38
2022-08-02T06:30:51.663Z,100981.63
2022-08-02T06:33:20.269Z,100968.56
2022-08-02T06:36:16.025Z,100974.84
2022-08-02T06:38:56.398Z,100990.63
2022-08-02T06:41:34.455Z,100995.81
2022-08-02T06:44:44.695Z,100998.28
2022-08-02T06:47:13.053Z,100983.91
2022-08-02T06:49:54.715Z,100985.34
2022-08-02T06:52:35.873Z,100988.13
2022-08-02T06:55:21.371Z,100985.75
2022-08-02T06:57:55.287Z,100992.53
2022-08-02T07:00:27.145Z,100994.53
2022-08-02T07:03:00.808Z,100991.34
2022-08-02T07:05:40.472Z,100984.91
2022-08-02T07:08:18.814Z,100984.94
2022-08-02T07:10:48.154Z,100996.59
2022-08-02T07:13:19.284Z,100976.81
2022-08-02T07:15:53.251Z,100968.66
2022-08-02T07:18:29.548Z,100979.63
2022-08-02T07:21:06.394Z,100990.31
2022-08-02T07:23:47.167Z,100987.75
2022-08-02T07:26:23.830Z,100978.72
2022-08-02T07:28:57.178Z,100990.03
2022-08-02T07:31:27.939Z,101001.75
2022-08-02T07:33:58.920Z,100987.91
2022-08-02T07:36:41.816Z,100976.97
2022-08-02T07:39:17.968Z,100979.38
2022-08-02T07:41:56.001Z,100977.75
2022-08-02T07:44:35.564Z,100972.50
2022-08-02T07:47:11.215Z,100978.56
2022-08-02T07:49:48.785Z,100972.84
2022-08-02T07:52:30.906Z,100970.44
2022-08-02T07:55:11.133Z,100981.00
2022-08-02T07:57:51.171Z,100949.28
2022-08-02T08:00:27.675Z,100948.09
2022-08-02T08:03:01.216Z,100963.47
2022-08-02T08:05:32.711Z,100949.28
2022-08-02T08:08:06.626Z,100952.94
2022-08-02T08:10:46.307Z,100939.56
2022-08-02T08:13:32.859Z,100937.88
2022-08-02T08:16:10.994Z,100931.84
2022-08-02T08:18:45.934Z,100930.97
2022-08-02T08:21:22.691Z,100947.19
2022-08-02T08:24:05.991Z,100960.97
2022-08-02T08:26:42.360Z,100953.63
2022-08-02T08:29:10.710Z,100948.34
2022-08-02T08:31:43.796Z,100947.94
2022-08-02T08:34:17.923Z,100933.75
2022-08-02T08:36:51.712Z,100938.22
2022-08-02T08:39:28.542Z,100947.75
2022-08-02T08:42:02.811Z,100936.44
2022-08-02T08:44:38.202Z,100946.22
2022-08-02T08:47:12.227Z,100954.69
2022-08-02T08:49:52.664Z,100951.38
2022-08-02T08:52:28.862Z,100951.31
2022-08-02T08:55:06.201Z,100950.88
2022-08-02T08:57:40.895Z,100956.09
2022-08-02T09:00:14.081Z,100957.66
2022-08-02T09:02:48.192Z,100950.31
2022-08-02T09:05:20.099Z,100959.25
2022-08-02T09:07:55.126Z,100966.53
2022-08-02T09:10:45.425Z,100964.91
2022-08-02T09:13:45.329Z,100967.75
2022-08-02T09:16:38.868Z,100973.03
2022-08-02T09:19:29.678Z,100969.78
2022-08-02T09:22:11.119Z,100967.00
2022-08-02T09:24:45.019Z,100974.28
2022-08-02T09:27:24.540Z,100967.38
2022-08-02T09:30:13.150Z,100963.34
2022-08-02T09:32:54.067Z,100968.16
2022-08-02T09:36:06.502Z,100975.44
2022-08-02T09:38:34.609Z,100978.69
2022-08-02T09:41:10.119Z,100975.00
2022-08-02T09:44:03.037Z,100981.09
2022-08-02T09:46:46.221Z,100983.53
2022-08-02T09:49:28.658Z,100984.31
2022-08-02T09:52:04.031Z,100977.38
2022-08-02T09:54:44.412Z,100974.53
2022-08-02T09:57:38.583Z,100964.38
2022-08-02T10:00:14.075Z,100970.88
2022-08-02T10:03:22.608Z,100969.25
2022-08-02T10:06:03.197Z,100964.75
2022-08-02T10:08:34.809Z,100965.16
2022-08-02T10:11:12.665Z,100961.44
2022-08-02T10:13:40.626Z,100964.69
2022-08-02T10:16:18.070Z,100946.88
2022-08-02T10:19:00.264Z,100942.44
2022-08-02T10:21:46.496Z,100939.53
2022-08-02T10:24:22.670Z,100945.66
2022-08-02T10:27:01.064Z,100944.03
2022-08-02T10:29:55.063Z,100937.13
2022-08-02T10:32:42.237Z,100930.66
2022-08-02T10:35:26.373Z,100931.81
2022-08-02T10:38:16.654Z,100924.13
2022-08-02T10:40:56.061Z,100918.38
2022-08-02T10:43:37.335Z,100922.44
2022-08-02T10:46:34.638Z,100916.69
2022-08-02T10:49:38.455Z,100915.53
2022-08-02T10:52:15.537Z,100908.66
2022-08-02T10:54:56.443Z,100908.28
2022-08-02T10:57:36.600Z,100896.09
2022-08-02T11:00:12.891Z,100903.41
2022-08-02T11:02:53.259Z,100901.81
2022-08-02T11:05:42.810Z,100893.66
2022-08-02T11:08:25.272Z,100888.81
2022-08-02T11:11:02.486Z,100895.72
2022-08-02T11:14:04.156Z,100893.72
2022-08-02T11:16:56.896Z,100887.63
2022-08-02T11:19:30.007Z,100887.56
2022-08-02T11:22:11.816Z,100897.34
2022-08-02T11:24:42.727Z,100892.91
2022-08-02T11:27:22.314Z,100892.50
2022-08-02T11:29:56.244Z,100884.78
2022-08-02T11:32:31.235Z,100884.34
2022-08-02T11:35:05.235Z,100878.66
2022-08-02T11:37:46.836Z,100882.34
2022-08-02T11:40:21.859Z,100876.63
2022-08-02T11:43:00.288Z,100871.81
2022-08-02T11:45:30.948Z,100869.34
2022-08-02T11:48:04.607Z,100871.41
2022-08-02T11:50:32.531Z,100873.81
2022-08-02T11:53:12.479Z,100874.97
2022-08-02T11:55:48.258Z,100872.56
2022-08-02T11:58:16.127Z,100875.81
2022-08-02T12:00:52.936Z,100872.13
2022-08-02T12:03:21.550Z,100875.75
2022-08-02T12:06:05.865Z,100873.75
2022-08-02T12:08:38.239Z,100877.75
2022-08-02T12:11:09.838Z,100879.81
2022-08-02T12:13:57.134Z,100871.25
2022-08-02T12:16:52.591Z,100878.59
2022-08-02T12:19:26.528Z,100873.25
2022-08-02T12:22:27.886Z,100866.91
2022-08-02T12:24:59.903Z,100869.78
2022-08-02T12:27:30.928Z,100866.56
2022-08-02T12:30:11.345Z,100878.38
2022-08-02T12:32:42.451Z,100866.59
2022-08-02T12:35:26.791Z,100858.47
2022-08-02T12:37:57.733Z,100865.44
2022-08-02T12:40:31.950Z,100856.94
2022-08-02T12:43:05.381Z,100856.06
2022-08-02T12:45:53.943Z,100848.81
2022-08-02T12:49:16.250Z,100845.56
2022-08-02T12:51:55.615Z,100839.94
2022-08-02T12:54:39.207Z,100836.66
2022-08-02T12:57:14.904Z,100843.97
2022-08-02T12:59:45.282Z,100838.28
2022-08-02T13:02:18.206Z,100839.97
2022-08-02T13:04:49.835Z,100831.03
2022-08-02T13:07:19.938Z,100830.66
2022-08-02T13:09:51.181Z,100826.59
2022-08-02T13:12:37.568Z,100828.63
2022-08-02T13:15:46.654Z,100823.31
2022-08-02T13:18:03.406Z,100828.16
2022-08-02T13:20:45.450Z,100824.94
2022-08-02T13:23:21.153Z,100824.13
2022-08-02T13:25:56.351Z,100824.13
2022-08-02T13:28:31.233Z,100820.94
2022-08-02T13:31:26.925Z,100812.41
2022-08-02T13:33:55.818Z,100811.56
2022-08-02T13:36:25.929Z,100810.75
2022-08-02T13:38:59.653Z,100806.28
2022-08-02T13:41:28.108Z,100802.69
2022-08-02T13:44:09.491Z,100814.06
2022-08-02T13:46:45.417Z,100810.78
2022-08-02T13:49:21.885Z,100799.50
2022-08-02T13:52:11.399Z,100805.13
2022-08-02T13:54:53.655Z,100800.69
2022-08-02T13:57:24.615Z,100813.25
2022-08-02T14:00:00.877Z,100814.94
2022-08-02T14:02:39.966Z,100803.94
2022-08-02T14:05:14.590Z,100802.38
2022-08-02T14:07:50.724Z,100809.25
2022-08-02T14:10:22.277Z,100808.47
2022-08-02T14:12:56.339Z,100807.66
2022-08-02T14:15:30.509Z,100803.19
2022-08-02T14:18:06.367Z,100800.34
2022-08-02T14:20:42.157Z,100808.88
2022-08-02T14:23:13.112Z,100802.38
2022-08-02T14:25:50.641Z,100801.19
2022-08-02T14:28:20.023Z,100794.25
2022-08-02T14:30:53.745Z,100790.16
2022-08-02T14:33:24.745Z,100787.31
2022-08-02T14:35:56.972Z,100787.25
2022-08-02T14:38:35.154Z,100777.50
2022-08-02T14:41:09.265Z,100781.56
2022-08-02T14:43:58.690Z,100785.25
2022-08-02T14:46:33.076Z,100783.25
2022-08-02T14:49:05.329Z,100782.44
2022-08-02T14:51:38.246Z,100777.50
2022-08-02T14:54:11.904Z,100766.63
2022-08-02T14:56:48.271Z,100776.75
2022-08-02T14:59:17.990Z,100762.59
2022-08-02T15:01:51.704Z,100768.22
2022-08-02T15:04:22.741Z,100761.78
2022-08-02T15:06:56.495Z,100757.72
2022-08-02T15:09:30.753Z,100754.47
2022-08-02T15:12:02.264Z,100751.22
2022-08-02T15:14:36.487Z,100752.00
2022-08-02T15:17:08.020Z,100752.41
2022-08-02T15:19:57.537Z,100753.66
2022-08-02T15:22:35.315Z,100752.00
2022-08-02T15:25:15.462Z,100743.47
2022-08-02T15:27:43.395Z,100741.88
2022-08-02T15:30:25.180Z,100741.09
2022-08-02T15:33:16.617Z,100741.09
2022-08-02T15:36:00.644Z,100741.84
2022-08-02T15:38:36.916Z,100741.88
2022-08-02T15:41:10.727Z,100746.75
2022-08-02T15:44:00.655Z,100737.34
2022-08-02T15:46:43.202Z,100740.56
2022-08-02T15:49:17.378Z,100743.78
2022-08-02T15:51:59.573Z,100739.34
2022-08-02T15:54:38.771Z,100741.78
2022-08-02T15:57:15.778Z,100745.44
2022-08-02T15:59:55.466Z,100747.47
2022-08-02T16:02:31.264Z,100740.16
2022-08-02T16:05:14.094Z,100741.84
2022-08-02T16:07:51.230Z,100742.22
2022-08-02T16:10:26.340Z,100738.94
2022-08-02T16:13:22.966Z,100736.53
2022-08-02T16:16:05.081Z,100733.72
2022-08-02T16:18:38.642Z,100745.03
2022-08-02T16:21:20.098Z,100748.28
2022-08-02T16:23:59.066Z,100747.03
2022-08-02T16:26:48.983Z,100743.34
2022-08-02T16:29:33.475Z,100742.50
2022-08-02T16:32:15.201Z,100741.69
2022-08-02T16:35:08.503Z,100740.94
2022-08-02T16:37:56.122Z,100736.88
2022-08-02T16:40:34.612Z,100736.81
2022-08-02T16:43:09.228Z,100737.91
2022-08-02T16:45:42.647Z,100739.06
2022-08-02T16:48:18.399Z,100739.06
2022-08-02T16:50:47.433Z,100740.31
2022-08-02T16:53:37.042Z,100740.69
2022-08-02T16:56:10.758Z,100737.94
2022-08-02T16:58:44.980Z,100742.53
2022-08-02T17:01:27.094Z,100744.44
2022-08-02T17:04:03.403Z,100743.84
2022-08-02T17:06:47.884Z,100741.69
2022-08-02T17:10:03.302Z,100748.09
2022-08-02T17:12:16.086Z,100744.31
2022-08-02T17:14:55.115Z,100752.41
2022-08-02T17:17:42.143Z,100752.28
2022-08-02T17:20:14.255Z,100758.72
2022-08-02T17:22:49.200Z,100759.84
2022-08-02T17:25:17.861Z,100762.63
2022-08-02T17:27:55.733Z,100756.84
2022-08-02T17:30:26.924Z,100767.38
2022-08-02T17:32:59.511Z,100768.97
2022-08-02T17:35:43.863Z,100766.84
2022-08-02T17:38:26.783Z,100772.47
2022-08-02T17:40:57.301Z,100772.84
2022-08-02T17:43:31.057Z,100774.06
2022-08-02T17:46:02.784Z,100787.03
2022-08-02T17:48:54.939Z,100781.34
2022-08-02T17:52:14.971Z,100784.13
2022-08-02T17:54:23.695Z,100790.56
2022-08-02T17:56:51.563Z,100791.00
2022-08-02T17:59:31.240Z,100786.47
2022-08-02T18:02:12.857Z,100790.53
2022-08-02T18:04:44.930Z,100787.66
2022-08-02T18:07:25.008Z,100789.31
2022-08-02T18:09:55.489Z,100798.19
2022-08-02T18:12:26.184Z,100793.31
2022-08-02T18:15:00.697Z,100788.84
2022-08-02T18:17:37.665Z,100792.94
2022-08-02T18:20:11.715Z,100797.78
2022-08-02T18:22:45.063Z,100798.59
2022-08-02T18:25:18.367Z,100788.78
2022-08-02T18:28:10.133Z,100799.78
2022-08-02T18:30:48.671Z,100797.25
2022-08-02T18:33:58.018Z,100798.91
2022-08-02T18:36:25.101Z,100800.88
2022-08-02T18:38:57.977Z,100798.81
2022-08-02T18:41:25.770Z,100800.00
2022-08-02T18:44:04.049Z,100797.50
2022-08-02T18:46:39.997Z,100803.66
2022-08-02T18:49:14.661Z,100803.66
2022-08-02T18:52:04.434Z,100797.16
2022-08-02T18:54:35.511Z,100803.22
2022-08-02T18:57:04.207Z,100795.44
2022-08-02T18:59:53.542Z,100799.94
2022-08-02T19:02:27.985Z,100802.78
2022-08-02T19:05:02.552Z,100801.97
2022-08-02T19:07:49.816Z,100805.19
2022-08-02T19:10:24.471Z,100806.00
2022-08-02T19:12:55.414Z,100804.31
2022-08-02T19:15:25.432Z,100805.91
2022-08-02T19:17:58.137Z,100805.56
2022-08-02T19:20:38.979Z,100815.31
2022-08-02T19:23:12.854Z,100814.06
2022-08-02T19:25:54.777Z,100816.91
2022-08-02T19:28:29.079Z,100824.66
2022-08-02T19:31:01.439Z,100829.50
2022-08-02T19:34:04.887Z,100840.06
2022-08-02T19:36:21.781Z,100838.91
2022-08-02T19:38:59.348Z,100842.56
2022-08-02T19:41:43.553Z,100844.19
2022-08-02T19:44:24.725Z,100848.22
2022-08-02T19:46:59.310Z,100846.97
2022-08-02T19:49:40.796Z,100849.00
2022-08-02T19:52:20.514Z,100853.84
2022-08-02T19:54:54.926Z,100861.59
2022-08-02T19:57:34.486Z,100860.00
2022-08-02T20:00:06.177Z,100863.66
2022-08-02T20:02:46.671Z,100868.91
2022-08-02T20:05:27.389Z,100873.38
2022-08-02T20:08:06.011Z,100875.00
2022-08-02T20:10:38.262Z,100866.44
2022-08-02T20:13:09.069Z,100866.44
2022-08-02T20:15:55.883Z,100872.06
2022-08-02T20:18:30.084Z,100874.13
2022-08-02T20:21:06.050Z,100882.28
2022-08-02T20:23:58.506Z,100882.69
2022-08-02T20:26:31.885Z,100885.53
2022-08-02T20:29:08.121Z,100893.22
2022-08-02T20:31:38.052Z,100883.03
2022-08-02T20:34:08.182Z,100883.03
2022-08-02T20:36:40.520Z,100887.94
2022-08-02T20:39:09.841Z,100888.31
2022-08-02T20:44:36.738Z,100888.31
2022-08-02T20:47:06.668Z,100896.88
2022-08-02T20:50:02.746Z,100890.28
2022-08-02T20:52:37.382Z,100885.41
2022-08-02T20:55:08.395Z,100884.59
2022-08-02T20:58:00.944Z,100887.44
2022-08-02T21:00:32.708Z,100897.19
2022-08-02T21:03:06.416Z,100888.25
2022-08-02T21:08:25.831Z,100893.09
2022-08-02T21:10:58.978Z,100887.00
2022-08-02T21:13:31.336Z,100888.25
2022-08-02T21:16:07.944Z,100886.56
2022-08-02T21:18:44.149Z,100893.09
2022-08-02T21:21:11.945Z,100888.19
2022-08-02T21:23:48.857Z,100891.41
2022-08-02T21:26:28.345Z,100893.47
2022-08-02T21:29:04.544Z,100894.25
2022-08-02T21:31:35.857Z,100888.97
2022-08-02T21:34:22.613Z,100893.00
2022-08-02T21:36:59.872Z,100893.81
2022-08-02T21:39:40.587Z,100892.59
2022-08-02T21:42:22.437Z,100901.94
2022-08-02T21:44:56.348Z,100896.25
2022-08-02T21:47:26.764Z,100908.84
2022-08-02T21:50:13.825Z,100907.25
2022-08-02T21:52:47.672Z,100909.25
2022-08-02T21:56:00.024Z,100901.94
2022-08-02T21:58:23.343Z,100901.47
2022-08-02T22:00:52.251Z,100903.13
2022-08-02T22:03:23.791Z,100908.03
2022-08-02T22:05:56.223Z,100910.47
2022-08-02T22:08:29.481Z,100912.09
2022-08-02T22:11:03.569Z,100909.66
2022-08-02T22:13:47.677Z,100908.84
2022-08-02T22:16:20.880Z,100916.19
2022-08-02T22:18:52.571Z,100918.22
2022-08-02T22:21:22.787Z,100918.50
2022-08-02T22:23:53.343Z,100918.59
2022-08-02T22:26:21.452Z,100920.22
2022-08-02T22:28:59.480Z,100924.75
2022-08-02T22:31:40.864Z,100926.28
2022-08-02T22:34:37.092Z,100925.47
2022-08-02T22:38:16.752Z,100932.34
2022-08-02T22:40:09.219Z,100924.22
2022-08-02T22:42:48.724Z,100927.53
2022-08-02T22:45:19.424Z,100931.56
2022-08-02T22:47:51.253Z,100921.75
2022-08-02T22:50:19.524Z,100927.06
2022-08-02T22:52:51.617Z,100929.50
2022-08-02T22:55:24.272Z,100924.16
2022-08-02T22:58:07.942Z,100929.06
2022-08-02T22:58:56.095Z,100889.91
2022-08-02T22:59:10.953Z,100889.84
2022-08-02T23:00:38.381Z,100933.97
2022-08-02T23:03:09.379Z,100929.84
2022-08-02T23:05:39.511Z,100933.09
2022-08-02T23:08:09.495Z,100927.84
2022-08-02T23:10:43.767Z,100933.59
2022-08-02T23:13:11.471Z,100929.84
2022-08-02T23:15:58.366Z,100925.41
2022-08-02T23:18:48.342Z,100923.34
2022-08-02T23:21:27.624Z,100920.06
2022-08-02T23:24:17.344Z,100926.56
2022-08-02T23:26:53.769Z,100927.84
2022-08-02T23:29:30.940Z,100935.16
2022-08-02T23:32:07.292Z,100934.34
2022-08-02T23:34:37.926Z,100931.03
2022-08-02T23:37:07.713Z,100933.09
2022-08-02T23:39:37.819Z,100937.53
2022-08-02T23:42:08.240Z,100931.03
2022-08-02T23:44:38.893Z,100941.59
2022-08-02T23:47:11.061Z,100937.53
2022-08-02T23:49:41.470Z,100946.94
2022-08-02T23:52:17.797Z,100938.38
2022-08-02T23:54:53.263Z,100946.09
2022-08-02T23:57:21.678Z,100937.19
2022-08-02T23:59:53.186Z,100934.28
